createdAt,value
2023-01-31T00:04:46.025Z,1.02
2023-01-31T00:09:48.041Z,1.04
2023-01-31T00:14:53.500Z,1.08
2023-01-31T00:19:55.502Z,1.10
2023-01-31T00:24:57.371Z,1.12
2023-01-31T00:29:59.374Z,1.13
2023-01-31T00:35:01.456Z,1.16
2023-01-31T00:40:05.044Z,1.21
2023-01-31T00:45:07.569Z,1.26
2023-01-31T00:50:14.137Z,1.34
2023-01-31T00:55:16.397Z,1.42
2023-01-31T01:00:18.721Z,1.52
2023-01-31T01:05:22.212Z,1.61
2023-01-31T01:10:24.537Z,1.67
2023-01-31T01:15:26.539Z,1.74
2023-01-31T01:20:31.414Z,1.84
2023-01-31T01:25:44.802Z,1.90
2023-01-31T01:30:46.869Z,1.93
2023-01-31T01:35:48.859Z,1.95
2023-01-31T01:40:51.587Z,1.95
2023-01-31T01:45:53.648Z,1.88
2023-01-31T01:50:56.033Z,1.70
2023-01-31T01:56:03.687Z,1.59
2023-01-31T02:01:10.924Z,1.53
2023-01-31T02:06:15.982Z,1.50
2023-01-31T02:11:26.252Z,1.47
2023-01-31T02:16:29.740Z,1.47
2023-01-31T02:21:37.553Z,1.48
2023-01-31T02:26:53.295Z,1.52
2023-01-31T02:32:31.160Z,1.59
2023-01-31T02:38:02.907Z,1.66
2023-01-31T02:43:23.752Z,1.70
2023-01-31T02:48:37.001Z,1.72
2023-01-31T02:53:48.564Z,1.75
2023-01-31T02:59:02.476Z,1.79
2023-01-31T03:04:09.748Z,1.83
2023-01-31T03:09:22.204Z,1.88
2023-01-31T03:14:33.765Z,1.92
2023-01-31T03:19:51.252Z,1.98
2023-01-31T03:24:54.876Z,2.02
2023-01-31T03:30:05.524Z,2.02
2023-01-31T03:35:09.657Z,1.81
2023-01-31T03:40:21.532Z,1.59
2023-01-31T03:45:36.304Z,1.42
2023-01-31T03:50:46.542Z,1.27
2023-01-31T03:55:53.121Z,1.17
2023-01-31T04:00:58.492Z,1.06
2023-01-31T04:06:01.794Z,0.97
2023-01-31T04:11:13.949Z,0.89
2023-01-31T04:16:16.346Z,0.86
2023-01-31T04:21:18.588Z,0.88
2023-01-31T04:26:20.582Z,0.94
2023-01-31T04:31:22.486Z,1.03
2023-01-31T04:36:25.511Z,1.16
2023-01-31T04:41:28.427Z,1.28
2023-01-31T04:46:30.442Z,1.38
2023-01-31T04:51:32.878Z,1.45
2023-01-31T04:56:35.113Z,1.50
2023-01-31T05:01:38.179Z,1.50
2023-01-31T05:06:40.160Z,1.42
2023-01-31T05:11:42.341Z,1.29
2023-01-31T05:16:47.348Z,1.15
2023-01-31T05:21:55.439Z,1.06
2023-01-31T05:27:01.315Z,0.98
2023-01-31T05:32:04.046Z,0.93
2023-01-31T05:37:09.723Z,0.91
2023-01-31T05:42:14.800Z,0.89
2023-01-31T05:47:17.105Z,0.88
2023-01-31T05:52:19.311Z,0.89
2023-01-31T05:57:22.558Z,0.90
2023-01-31T06:02:24.745Z,0.91
2023-01-31T06:07:26.842Z,0.94
2023-01-31T06:12:32.068Z,0.97
2023-01-31T06:17:34.649Z,0.99
2023-01-31T06:22:36.635Z,1.00
2023-01-31T06:27:39.027Z,1.01
2023-01-31T06:32:41.038Z,1.03
2023-01-31T06:37:43.751Z,1.08
2023-01-31T06:42:46.481Z,1.13
2023-01-31T06:47:48.549Z,1.20
2023-01-31T06:53:00.615Z,1.27
2023-01-31T06:58:07.916Z,1.34
2023-01-31T07:03:10.596Z,1.41
2023-01-31T07:08:13.879Z,1.48
2023-01-31T07:13:23.392Z,1.55
2023-01-31T07:18:25.596Z,1.61
2023-01-31T07:23:31.177Z,1.69
2023-01-31T07:28:36.238Z,1.73
2023-01-31T07:33:39.827Z,1.75
2023-01-31T07:38:42.575Z,1.77
2023-01-31T07:43:44.461Z,1.81
2023-01-31T07:48:49.588Z,1.83
2023-01-31T07:53:52.323Z,1.85
2023-01-31T07:58:56.734Z,1.87
2023-01-31T08:04:10.740Z,1.89
2023-01-31T08:09:21.029Z,1.90
2023-01-31T08:14:25.940Z,1.91
2023-01-31T08:19:27.979Z,1.94
2023-01-31T08:24:31.754Z,2.00
2023-01-31T08:29:35.166Z,2.05
2023-01-31T08:34:39.911Z,2.10
2023-01-31T08:39:45.555Z,2.15
2023-01-31T08:44:47.602Z,2.20
2023-01-31T08:49:52.303Z,2.25
2023-01-31T08:54:54.319Z,2.29
2023-01-31T08:59:56.633Z,2.36
2023-01-31T09:04:58.762Z,2.42
2023-01-31T09:10:01.317Z,2.46
2023-01-31T09:15:04.654Z,2.54
2023-01-31T09:20:10.026Z,2.59
2023-01-31T09:25:12.218Z,2.58
2023-01-31T09:30:14.628Z,2.58
2023-01-31T09:35:19.343Z,2.60
2023-01-31T09:40:25.106Z,2.62
2023-01-31T09:45:32.066Z,2.65
2023-01-31T09:50:41.055Z,2.67
2023-01-31T09:56:14.231Z,2.71
2023-01-31T10:01:43.893Z,2.70
2023-01-31T10:07:17.174Z,2.70
2023-01-31T10:12:25.376Z,2.71
2023-01-31T10:17:40.711Z,2.72
2023-01-31T10:23:09.941Z,2.72
2023-01-31T10:28:22.640Z,2.79
2023-01-31T10:33:35.465Z,2.89
2023-01-31T10:38:54.805Z,3.02
2023-01-31T10:44:06.668Z,3.17
2023-01-31T10:49:10.739Z,3.30
2023-01-31T10:54:32.738Z,3.32
2023-01-31T10:59:42.379Z,3.30
2023-01-31T11:04:44.890Z,3.31
2023-01-31T11:09:54.422Z,3.31
2023-01-31T11:15:20.870Z,3.26
2023-01-31T11:20:37.325Z,3.20
2023-01-31T11:25:53.836Z,3.18
2023-01-31T11:30:56.571Z,3.23
2023-01-31T11:35:58.657Z,3.34
2023-01-31T11:41:33.997Z,3.41
2023-01-31T11:46:58.104Z,3.49
2023-01-31T11:52:12.184Z,3.56
2023-01-31T11:57:41.558Z,3.59
2023-01-31T12:02:43.863Z,3.60
2023-01-31T12:07:50.444Z,3.56
2023-01-31T12:12:53.157Z,3.55
2023-01-31T12:17:56.135Z,3.50
2023-01-31T12:23:32.230Z,3.45
2023-01-31T12:28:59.197Z,3.39
2023-01-31T12:34:13.261Z,3.21
2023-01-31T12:39:37.357Z,3.10
2023-01-31T12:44:47.731Z,3.18
2023-01-31T12:50:34.700Z,3.25
2023-01-31T12:55:46.417Z,3.26
2023-01-31T13:01:09.322Z,3.33
2023-01-31T13:06:21.601Z,3.46
2023-01-31T13:11:39.022Z,3.60
2023-01-31T13:16:46.800Z,3.64
2023-01-31T13:21:59.322Z,3.64
2023-01-31T13:27:10.623Z,3.59
2023-01-31T13:32:28.155Z,3.52
2023-01-31T13:37:35.482Z,3.47
2023-01-31T13:42:37.352Z,3.41
2023-01-31T13:47:48.447Z,3.24
2023-01-31T13:52:56.997Z,3.03
2023-01-31T13:58:05.685Z,2.89
2023-01-31T14:03:13.655Z,2.73
2023-01-31T14:08:27.660Z,2.62
2023-01-31T14:13:37.781Z,2.58
2023-01-31T14:18:46.627Z,2.63
2023-01-31T14:23:49.532Z,2.69
2023-01-31T14:28:51.955Z,2.74
2023-01-31T14:33:57.544Z,2.76
2023-01-31T14:39:38.187Z,2.65
2023-01-31T14:44:52.248Z,2.57
2023-01-31T14:50:29.547Z,2.48
2023-01-31T14:55:56.018Z,2.39
2023-01-31T15:01:01.158Z,2.34
2023-01-31T15:06:15.978Z,2.31
2023-01-31T15:11:41.409Z,2.25
2023-01-31T15:16:44.934Z,2.20
2023-01-31T15:21:52.043Z,2.13
2023-01-31T15:26:59.247Z,2.03
2023-01-31T15:32:19.157Z,1.96
2023-01-31T15:37:28.973Z,1.90
2023-01-31T15:42:33.807Z,1.85
2023-01-31T15:47:35.714Z,1.85
2023-01-31T15:52:38.335Z,1.84
2023-01-31T15:57:57.317Z,1.82
2023-01-31T16:03:00.980Z,1.78
2023-01-31T16:08:07.096Z,1.76
2023-01-31T16:13:09.328Z,1.77
2023-01-31T16:18:13.075Z,1.80
2023-01-31T16:23:28.564Z,1.80
2023-01-31T16:28:42.305Z,1.77
2023-01-31T16:33:51.065Z,1.74
2023-01-31T16:39:06.495Z,1.72
2023-01-31T16:44:18.772Z,1.71
2023-01-31T16:49:29.950Z,1.69
2023-01-31T16:54:44.414Z,1.61
2023-01-31T16:59:49.263Z,1.53
2023-01-31T17:04:53.895Z,1.40
2023-01-31T17:10:02.670Z,1.26
2023-01-31T17:15:19.947Z,1.17
2023-01-31T17:20:22.519Z,1.08
2023-01-31T17:25:30.649Z,1.01
2023-01-31T17:30:34.308Z,0.94
2023-01-31T17:35:41.833Z,0.92
2023-01-31T17:40:45.280Z,0.92
2023-01-31T17:45:50.265Z,0.92
2023-01-31T17:50:53.667Z,0.93
2023-01-31T17:55:56.256Z,0.93
2023-01-31T18:00:58.162Z,0.93
2023-01-31T18:06:08.395Z,0.93
2023-01-31T18:11:14.162Z,0.95
2023-01-31T18:16:19.226Z,0.99
2023-01-31T18:21:22.986Z,1.01
2023-01-31T18:26:25.442Z,1.02
2023-01-31T18:31:32.110Z,1.01
2023-01-31T18:36:34.435Z,1.03
2023-01-31T18:41:37.034Z,1.02
2023-01-31T18:46:41.419Z,1.00
2023-01-31T18:51:43.696Z,0.99
2023-01-31T18:56:49.767Z,0.98
2023-01-31T19:01:53.240Z,0.99
2023-01-31T19:06:55.373Z,1.00
2023-01-31T19:11:57.275Z,1.02
2023-01-31T19:16:59.672Z,1.06
2023-01-31T19:22:02.398Z,1.08
2023-01-31T19:27:11.886Z,1.10
2023-01-31T19:32:13.863Z,1.10
2023-01-31T19:37:15.887Z,1.11
2023-01-31T19:42:17.788Z,1.13
2023-01-31T19:47:20.216Z,1.13
2023-01-31T19:52:22.086Z,1.14
2023-01-31T19:57:24.628Z,1.16
2023-01-31T20:02:27.117Z,1.16
2023-01-31T20:07:29.179Z,1.16
2023-01-31T20:12:33.277Z,1.15
2023-01-31T20:17:37.519Z,1.12
2023-01-31T20:22:41.890Z,1.10
2023-01-31T20:27:43.946Z,1.08
2023-01-31T20:32:47.708Z,1.06
2023-01-31T20:37:50.191Z,1.07
2023-01-31T20:42:52.187Z,1.08
2023-01-31T20:47:56.062Z,1.09
2023-01-31T20:52:58.000Z,1.10
2023-01-31T20:58:02.000Z,1.13
2023-01-31T21:03:03.982Z,1.17
2023-01-31T21:08:06.459Z,1.20
2023-01-31T21:13:09.111Z,1.23
2023-01-31T21:18:11.045Z,1.28
2023-01-31T21:23:13.656Z,1.33
2023-01-31T21:28:16.327Z,1.36
2023-01-31T21:33:26.879Z,1.41
2023-01-31T21:38:29.002Z,1.46
2023-01-31T21:43:31.085Z,1.52
2023-01-31T21:48:33.100Z,1.56
2023-01-31T21:53:35.345Z,1.61
2023-01-31T21:58:39.269Z,1.67
2023-01-31T22:03:45.213Z,1.73
2023-01-31T22:08:52.264Z,1.80
2023-01-31T22:14:04.362Z,1.87
2023-01-31T22:19:07.083Z,1.93
2023-01-31T22:24:11.731Z,1.98
2023-01-31T22:29:16.694Z,1.99
2023-01-31T22:34:19.050Z,2.02
2023-01-31T22:39:21.904Z,2.04
2023-01-31T22:44:24.105Z,2.05
2023-01-31T22:49:25.999Z,2.06
2023-01-31T22:54:27.955Z,2.05
2023-01-31T22:59:29.957Z,2.06
2023-01-31T23:04:32.046Z,2.07
2023-01-31T23:09:33.972Z,2.10
2023-01-31T23:14:36.026Z,2.13
2023-01-31T23:19:37.971Z,2.15
2023-01-31T23:24:39.985Z,2.14
2023-01-31T23:29:44.896Z,2.11
2023-01-31T23:34:47.131Z,2.05
2023-01-31T23:39:49.414Z,2.01
2023-01-31T23:44:51.715Z,1.99
2023-01-31T23:49:53.785Z,1.98
2023-01-31T23:54:55.759Z,1.94
2023-01-31T23:59:57.752Z,1.85
